sensor_id;sensor_type;location;lat;lon;timestamp;pressure;altitude;pressure_sealevel;temperature;humidity
69316;BME280;56445;43.552;5.034;2022-09-03T05:45:35;101184.41;;;38.27;23.86
69316;BME280;56445;43.552;5.034;2022-09-03T05:48:15;101185.66;;;38.34;23.76
69316;BME280;56445;43.552;5.034;2022-09-03T05:53:53;101181.19;;;38.29;24.03
69316;BME280;56445;43.552;5.034;2022-09-03T05:56:29;101192.53;;;38.36;23.54
69316;BME280;56445;43.552;5.034;2022-09-03T06:02:10;101236.69;;;38.70;23.78
69316;BME280;56445;43.552;5.034;2022-09-03T06:04:37;101204.34;;;38.53;23.98
69316;BME280;56445;43.552;5.034;2022-09-03T06:07:04;101236.34;;;38.75;23.77
69316;BME280;56445;43.552;5.034;2022-09-03T06:09:35;101201.59;;;38.60;23.78
69316;BME280;56445;43.552;5.034;2022-09-03T06:12:26;101186.25;;;38.54;24.01
69316;BME280;56445;43.552;5.034;2022-09-03T06:14:54;101231.53;;;38.82;23.91
69316;BME280;56445;43.552;5.034;2022-09-03T06:17:21;101211.69;;;38.68;23.50
69316;BME280;56445;43.552;5.034;2022-09-03T06:19:49;101212.19;;;38.77;23.86
69316;BME280;56445;43.552;5.034;2022-09-03T06:22:17;101204.88;;;38.69;23.83
69316;BME280;56445;43.552;5.034;2022-09-03T06:24:44;101222.72;;;38.87;23.72
69316;BME280;56445;43.552;5.034;2022-09-03T06:27:12;101238.03;;;38.90;23.68
69316;BME280;56445;43.552;5.034;2022-09-03T06:29:40;101228.78;;;38.93;23.57
69316;BME280;56445;43.552;5.034;2022-09-03T06:32:32;101218.69;;;38.92;23.54
69316;BME280;56445;43.552;5.034;2022-09-03T06:35:23;101215.56;;;39.01;23.58
69316;BME280;56445;43.552;5.034;2022-09-03T06:37:52;101207.53;;;39.03;23.78
69316;BME280;56445;43.552;5.034;2022-09-03T06:40:24;101191.31;;;38.93;23.73
69316;BME280;56445;43.552;5.034;2022-09-03T06:47:12;101218.03;;;39.10;23.64
69316;BME280;56445;43.552;5.034;2022-09-03T06:49:40;101189.78;;;38.99;23.86
69316;BME280;56445;43.552;5.034;2022-09-03T06:52:10;101182.50;;;38.98;23.81
69316;BME280;56445;43.552;5.034;2022-09-03T06:54:40;101192.25;;;39.11;23.84
69316;BME280;56445;43.552;5.034;2022-09-03T06:57:07;101197.09;;;39.18;23.91
69316;BME280;56445;43.552;5.034;2022-09-03T06:59:35;101191.47;;;39.21;24.01
69316;BME280;56445;43.552;5.034;2022-09-03T07:02:11;101202.81;;;39.29;23.75
69316;BME280;56445;43.552;5.034;2022-09-03T07:04:39;101209.28;;;39.33;24.00
69316;BME280;56445;43.552;5.034;2022-09-03T07:07:09;101227.50;;;39.46;23.68
69316;BME280;56445;43.552;5.034;2022-09-03T07:09:48;101229.13;;;39.51;23.74
69316;BME280;56445;43.552;5.034;2022-09-03T07:12:15;101197.16;;;39.36;23.72
69316;BME280;56445;43.552;5.034;2022-09-03T07:14:50;101201.25;;;39.45;23.51
69316;BME280;56445;43.552;5.034;2022-09-03T07:17:19;101202.91;;;39.50;23.81
69316;BME280;56445;43.552;5.034;2022-09-03T07:19:46;101193.22;;;39.51;24.18
69316;BME280;56445;43.552;5.034;2022-09-03T07:22:13;101223.94;;;39.71;23.90
69316;BME280;56445;43.552;5.034;2022-09-03T07:24:40;101225.16;;;39.73;23.83
69316;BME280;56445;43.552;5.034;2022-09-03T07:27:29;101195.66;;;39.63;24.18
69316;BME280;56445;43.552;5.034;2022-09-03T07:29:59;101190.84;;;39.64;24.00
69316;BME280;56445;43.552;5.034;2022-09-03T07:32:26;101202.97;;;39.72;23.64
69316;BME280;56445;43.552;5.034;2022-09-03T07:34:53;101183.59;;;39.66;23.54
69316;BME280;56445;43.552;5.034;2022-09-03T07:37:20;101196.53;;;39.78;23.91
69316;BME280;56445;43.552;5.034;2022-09-03T07:39:48;101189.69;;;39.79;23.74
69316;BME280;56445;43.552;5.034;2022-09-03T07:42:15;101187.66;;;39.80;23.89
69316;BME280;56445;43.552;5.034;2022-09-03T07:44:42;101190.06;;;39.85;24.01
69316;BME280;56445;43.552;5.034;2022-09-03T07:47:09;101194.97;;;39.88;23.89
69316;BME280;56445;43.552;5.034;2022-09-03T07:49:36;101206.69;;;39.97;23.96
69316;BME280;56445;43.552;5.034;2022-09-03T07:52:03;101220.81;;;40.04;23.77
69316;BME280;56445;43.552;5.034;2022-09-03T07:54:30;101206.25;;;40.02;23.92
69316;BME280;56445;43.552;5.034;2022-09-03T07:56:58;101203.84;;;40.12;23.80
69316;BME280;56445;43.552;5.034;2022-09-03T07:59:25;101201.44;;;40.21;24.05
69316;BME280;56445;43.552;5.034;2022-09-03T08:01:52;101214.81;;;40.31;23.98
69316;BME280;56445;43.552;5.034;2022-09-03T08:04:19;101194.16;;;40.31;23.73
69316;BME280;56445;43.552;5.034;2022-09-03T08:06:47;101211.94;;;40.42;23.88
69316;BME280;56445;43.552;5.034;2022-09-03T08:09:15;101214.38;;;40.51;23.82
69316;BME280;56445;43.552;5.034;2022-09-03T08:11:42;101200.25;;;40.47;23.72
69316;BME280;56445;43.552;5.034;2022-09-03T08:14:11;101211.97;;;40.53;23.82
69316;BME280;56445;43.552;5.034;2022-09-03T08:16:44;101213.56;;;40.54;23.88
69316;BME280;56445;43.552;5.034;2022-09-03T08:19:16;101203.88;;;40.55;23.60
69316;BME280;56445;43.552;5.034;2022-09-03T08:21:44;101210.34;;;40.59;23.77
69316;BME280;56445;43.552;5.034;2022-09-03T08:24:14;101216.00;;;40.59;23.72
69316;BME280;56445;43.552;5.034;2022-09-03T08:26:42;101209.09;;;40.67;23.77
69316;BME280;56445;43.552;5.034;2022-09-03T08:29:17;101220.00;;;40.72;23.81
69316;BME280;56445;43.552;5.034;2022-09-03T08:31:44;101242.25;;;40.85;23.86
69316;BME280;56445;43.552;5.034;2022-09-03T08:34:11;101249.09;;;40.91;23.71
69316;BME280;56445;43.552;5.034;2022-09-03T08:36:40;101238.59;;;40.88;23.97
69316;BME280;56445;43.552;5.034;2022-09-03T08:39:09;101232.13;;;40.91;24.01
69316;BME280;56445;43.552;5.034;2022-09-03T08:49:51;101236.16;;;40.90;23.70
69316;BME280;56445;43.552;5.034;2022-09-03T08:52:35;101247.47;;;40.97;23.82
69316;BME280;56445;43.552;5.034;2022-09-03T08:55:28;101262.00;;;41.06;24.02
69316;BME280;56445;43.552;5.034;2022-09-03T08:58:14;101263.22;;;41.05;23.76
69316;BME280;56445;43.552;5.034;2022-09-03T09:00:47;101259.56;;;41.08;23.92
69316;BME280;56445;43.552;5.034;2022-09-03T09:09:29;101244.97;;;41.17;24.04
69316;BME280;56445;43.552;5.034;2022-09-03T09:12:34;101278.91;;;41.42;23.87
69316;BME280;56445;43.552;5.034;2022-09-03T09:15:37;101285.34;;;41.42;23.89
69316;BME280;56445;43.552;5.034;2022-09-03T09:21:22;101276.41;;;41.55;23.86
69316;BME280;56445;43.552;5.034;2022-09-03T09:23:56;101270.72;;;41.58;23.89
69316;BME280;56445;43.552;5.034;2022-09-03T09:26:25;101265.41;;;41.75;23.87
69316;BME280;56445;43.552;5.034;2022-09-03T09:29:00;101253.59;;;41.91;23.72
69316;BME280;56445;43.552;5.034;2022-09-03T09:31:30;101261.53;;;42.14;23.76
69316;BME280;56445;43.552;5.034;2022-09-03T09:34:06;101260.22;;;42.29;23.75
69316;BME280;56445;43.552;5.034;2022-09-03T09:36:44;101263.78;;;42.40;23.72
69316;BME280;56445;43.552;5.034;2022-09-03T09:39:13;101280.56;;;42.69;23.48
69316;BME280;56445;43.552;5.034;2022-09-03T09:41:42;101263.81;;;42.82;23.45
69316;BME280;56445;43.552;5.034;2022-09-03T09:44:18;101268.72;;;43.20;23.82
69316;BME280;56445;43.552;5.034;2022-09-03T09:46:46;101251.34;;;43.48;23.76
69316;BME280;56445;43.552;5.034;2022-09-03T09:52:12;101258.53;;;43.56;23.56
69316;BME280;56445;43.552;5.034;2022-09-03T09:54:42;101257.94;;;43.72;23.75
69316;BME280;56445;43.552;5.034;2022-09-03T09:57:20;101256.53;;;43.84;23.68
69316;BME280;56445;43.552;5.034;2022-09-03T09:59:48;101249.22;;;44.14;23.59
69316;BME280;56445;43.552;5.034;2022-09-03T10:02:26;101236.03;;;44.51;23.38
69316;BME280;56445;43.552;5.034;2022-09-03T10:05:00;101248.25;;;44.95;23.77
69316;BME280;56445;43.552;5.034;2022-09-03T10:07:38;101235.25;;;45.34;23.58
69316;BME280;56445;43.552;5.034;2022-09-03T10:10:19;101250.47;;;45.84;23.58
69316;BME280;56445;43.552;5.034;2022-09-03T10:15:49;101240.22;;;45.86;23.28
69316;BME280;56445;43.552;5.034;2022-09-03T10:18:38;101231.66;;;46.19;22.99
69316;BME280;56445;43.552;5.034;2022-09-03T10:21:31;101241.63;;;46.60;23.49
69316;BME280;56445;43.552;5.034;2022-09-03T10:26:42;101232.09;;;47.25;23.29
69316;BME280;56445;43.552;5.034;2022-09-03T10:29:17;101228.28;;;47.16;23.16
69316;BME280;56445;43.552;5.034;2022-09-03T10:32:01;101243.91;;;47.11;23.06
69316;BME280;56445;43.552;5.034;2022-09-03T10:37:37;101224.50;;;46.77;23.12
69316;BME280;56445;43.552;5.034;2022-09-03T10:40:12;101226.50;;;46.47;22.98
69316;BME280;56445;43.552;5.034;2022-09-03T10:43:08;101204.78;;;46.20;22.59
69316;BME280;56445;43.552;5.034;2022-09-03T10:52:01;101222.31;;;45.86;22.62
69316;BME280;56445;43.552;5.034;2022-09-03T11:00:52;101178.69;;;44.72;22.79
69316;BME280;56445;43.552;5.034;2022-09-03T11:03:31;101191.34;;;44.71;22.64
69316;BME280;56445;43.552;5.034;2022-09-03T11:06:16;101205.81;;;44.57;22.58
69316;BME280;56445;43.552;5.034;2022-09-03T11:09:12;101202.13;;;44.37;22.79
69316;BME280;56445;43.552;5.034;2022-09-03T11:11:46;101201.63;;;44.18;22.66
69316;BME280;56445;43.552;5.034;2022-09-03T11:14:48;101168.69;;;43.93;22.87
69316;BME280;56445;43.552;5.034;2022-09-03T11:17:24;101173.63;;;43.89;22.71
69316;BME280;56445;43.552;5.034;2022-09-03T11:20:23;101204.28;;;44.02;22.83
69316;BME280;56445;43.552;5.034;2022-09-03T11:22:54;101188.31;;;43.84;22.37
69316;BME280;56445;43.552;5.034;2022-09-03T11:25:40;101202.81;;;43.93;22.63
69316;BME280;56445;43.552;5.034;2022-09-03T11:28:40;101186.09;;;43.72;22.64
69316;BME280;56445;43.552;5.034;2022-09-03T11:34:30;101199.81;;;43.46;22.89
69316;BME280;56445;43.552;5.034;2022-09-03T11:37:27;101193.03;;;43.40;23.05
69316;BME280;56445;43.552;5.034;2022-09-03T11:40:05;101193.19;;;43.26;22.61
69316;BME280;56445;43.552;5.034;2022-09-03T11:43:07;101198.88;;;43.26;22.69
69316;BME280;56445;43.552;5.034;2022-09-03T11:45:46;101198.94;;;43.18;22.58
69316;BME280;56445;43.552;5.034;2022-09-03T11:48:51;101176.59;;;42.90;22.93
69316;BME280;56445;43.552;5.034;2022-09-03T11:56:50;101206.00;;;43.07;22.65
69316;BME280;56445;43.552;5.034;2022-09-03T11:59:23;101194.28;;;43.01;22.78
69316;BME280;56445;43.552;5.034;2022-09-03T12:02:27;101191.00;;;43.06;22.71
69316;BME280;56445;43.552;5.034;2022-09-03T12:08:26;101164.34;;;42.96;22.89
69316;BME280;56445;43.552;5.034;2022-09-03T12:14:05;101144.69;;;42.78;23.03
69316;BME280;56445;43.552;5.034;2022-09-03T12:20:10;101179.88;;;42.85;22.77
69316;BME280;56445;43.552;5.034;2022-09-03T12:22:59;101170.94;;;42.90;22.77
69316;BME280;56445;43.552;5.034;2022-09-03T12:25:33;101156.41;;;42.81;22.54
69316;BME280;56445;43.552;5.034;2022-09-03T13:09:40;101168.94;;;43.79;22.97
69316;BME280;56445;43.552;5.034;2022-09-03T13:13:00;101191.28;;;44.04;22.75
69316;BME280;56445;43.552;5.034;2022-09-03T13:32:22;101185.78;;;44.41;23.05
69316;BME280;56445;43.552;5.034;2022-09-03T13:34:59;101190.84;;;44.29;22.93
69316;BME280;56445;43.552;5.034;2022-09-03T13:40:24;101173.72;;;44.33;22.75
69316;BME280;56445;43.552;5.034;2022-09-03T13:45:59;101152.78;;;44.23;23.00
69316;BME280;56445;43.552;5.034;2022-09-03T13:48:29;101182.38;;;44.49;22.78
69316;BME280;56445;43.552;5.034;2022-09-03T13:51:27;101179.97;;;44.71;22.64
69316;BME280;56445;43.552;5.034;2022-09-03T13:57:40;101147.16;;;44.63;22.59
69316;BME280;56445;43.552;5.034;2022-09-03T14:00:31;101157.81;;;44.59;22.69
69316;BME280;56445;43.552;5.034;2022-09-03T14:03:16;101153.53;;;44.71;22.90
69316;BME280;56445;43.552;5.034;2022-09-03T14:11:48;101163.19;;;45.53;22.53
69316;BME280;56445;43.552;5.034;2022-09-03T14:20:13;101147.09;;;45.80;22.68
69316;BME280;56445;43.552;5.034;2022-09-03T14:22:58;101157.16;;;46.01;22.52
69316;BME280;56445;43.552;5.034;2022-09-03T14:25:29;101162.50;;;46.15;22.46
69316;BME280;56445;43.552;5.034;2022-09-03T14:30:54;101188.13;;;46.64;22.64
69316;BME280;56445;43.552;5.034;2022-09-03T14:59:19;101175.69;;;45.03;22.45
69316;BME280;56445;43.552;5.034;2022-09-03T15:05:08;101161.44;;;44.83;22.89
69316;BME280;56445;43.552;5.034;2022-09-03T15:07:44;101164.06;;;44.94;22.97
69316;BME280;56445;43.552;5.034;2022-09-03T15:13:22;101157.41;;;45.21;22.77
69316;BME280;56445;43.552;5.034;2022-09-03T15:32:08;101155.22;;;44.68;22.62
69316;BME280;56445;43.552;5.034;2022-09-03T15:35:08;101144.22;;;44.47;22.81
69316;BME280;56445;43.552;5.034;2022-09-03T15:43:19;101148.69;;;44.01;22.86
69316;BME280;56445;43.552;5.034;2022-09-03T15:45:53;101136.31;;;43.87;22.59
69316;BME280;56445;43.552;5.034;2022-09-03T15:48:33;101145.28;;;43.86;22.82
69316;BME280;56445;43.552;5.034;2022-09-03T15:54:52;101149.19;;;43.68;22.94
69316;BME280;56445;43.552;5.034;2022-09-03T15:57:59;101137.97;;;43.57;22.71
69316;BME280;56445;43.552;5.034;2022-09-03T16:01:05;101123.56;;;43.45;22.72
69316;BME280;56445;43.552;5.034;2022-09-03T16:06:31;101146.50;;;43.57;23.07
69316;BME280;56445;43.552;5.034;2022-09-03T16:17:57;101149.34;;;43.27;23.08
69316;BME280;56445;43.552;5.034;2022-09-03T16:26:55;101155.69;;;43.07;23.32
69316;BME280;56445;43.552;5.034;2022-09-03T16:29:41;101155.28;;;43.09;23.25
69316;BME280;56445;43.552;5.034;2022-09-03T16:35:39;101162.66;;;43.03;22.99
69316;BME280;56445;43.552;5.034;2022-09-03T16:41:17;101171.59;;;43.01;23.01
69316;BME280;56445;43.552;5.034;2022-09-03T16:55:12;101173.06;;;42.78;22.98
69316;BME280;56445;43.552;5.034;2022-09-03T16:58:44;101149.44;;;42.51;23.08
69316;BME280;56445;43.552;5.034;2022-09-03T17:04:13;101181.53;;;42.40;23.21
69316;BME280;56445;43.552;5.034;2022-09-03T17:07:27;101157.00;;;42.23;23.17
69316;BME280;56445;43.552;5.034;2022-09-03T17:10:59;101188.56;;;42.25;22.92
69316;BME280;56445;43.552;5.034;2022-09-03T17:13:47;101195.13;;;42.15;23.00
69316;BME280;56445;43.552;5.034;2022-09-03T17:19:34;101193.63;;;42.03;23.18
69316;BME280;56445;43.552;5.034;2022-09-03T17:25:27;101191.25;;;41.91;23.15
69316;BME280;56445;43.552;5.034;2022-09-03T17:30:58;101205.75;;;42.00;23.07
69316;BME280;56445;43.552;5.034;2022-09-03T17:36:17;101217.88;;;42.00;23.13
69316;BME280;56445;43.552;5.034;2022-09-03T17:39:04;101216.28;;;41.99;23.17
69316;BME280;56445;43.552;5.034;2022-09-03T17:41:47;101216.72;;;41.94;23.09
69316;BME280;56445;43.552;5.034;2022-09-03T17:47:46;101214.75;;;41.84;23.36
69316;BME280;56445;43.552;5.034;2022-09-03T17:52:47;101211.16;;;41.76;23.21
69316;BME280;56445;43.552;5.034;2022-09-03T17:55:32;101230.97;;;41.80;23.13
69316;BME280;56445;43.552;5.034;2022-09-03T18:00:43;101224.56;;;41.69;23.21
69316;BME280;56445;43.552;5.034;2022-09-03T18:03:17;101238.28;;;41.77;23.19
69316;BME280;56445;43.552;5.034;2022-09-03T18:05:55;101226.22;;;41.63;23.26
69316;BME280;56445;43.552;5.034;2022-09-03T18:08:40;101226.22;;;41.63;23.24
69316;BME280;56445;43.552;5.034;2022-09-03T18:11:29;101222.19;;;41.56;22.91
69316;BME280;56445;43.552;5.034;2022-09-03T18:14:23;101256.94;;;41.71;23.22
69316;BME280;56445;43.552;5.034;2022-09-03T18:17:05;101261.81;;;41.67;23.28
69316;BME280;56445;43.552;5.034;2022-09-03T18:19:47;101240.81;;;41.54;23.33
69316;BME280;56445;43.552;5.034;2022-09-03T18:25:40;101260.25;;;41.52;23.36
69316;BME280;56445;43.552;5.034;2022-09-03T18:28:38;101249.34;;;41.43;23.21
69316;BME280;56445;43.552;5.034;2022-09-03T18:31:25;101245.28;;;41.48;23.27
69316;BME280;56445;43.552;5.034;2022-09-03T18:34:11;101244.13;;;41.41;23.27
69316;BME280;56445;43.552;5.034;2022-09-03T18:36:58;101242.88;;;41.42;23.26
69316;BME280;56445;43.552;5.034;2022-09-03T18:39:44;101280.06;;;41.55;23.34
69316;BME280;56445;43.552;5.034;2022-09-03T18:42:48;101272.38;;;41.52;23.25
69316;BME280;56445;43.552;5.034;2022-09-03T18:55:28;101307.22;;;41.35;23.38
69316;BME280;56445;43.552;5.034;2022-09-03T19:01:33;101308.47;;;41.30;23.52
69316;BME280;56445;43.552;5.034;2022-09-03T19:04:43;101302.41;;;41.28;23.38
69316;BME280;56445;43.552;5.034;2022-09-03T19:07:55;101299.19;;;41.22;23.39
69316;BME280;56445;43.552;5.034;2022-09-03T19:13:50;101308.03;;;41.17;23.55
69316;BME280;56445;43.552;5.034;2022-09-03T19:20:24;101309.69;;;41.11;23.56
69316;BME280;56445;43.552;5.034;2022-09-03T19:23:12;101327.06;;;41.17;23.42
69316;BME280;56445;43.552;5.034;2022-09-03T19:26:11;101338.00;;;41.26;23.51
69316;BME280;56445;43.552;5.034;2022-09-03T19:29:06;101346.50;;;41.22;23.50
69316;BME280;56445;43.552;5.034;2022-09-03T19:32:10;101346.06;;;41.13;23.35
69316;BME280;56445;43.552;5.034;2022-09-03T19:38:14;101361.88;;;41.21;23.38
69316;BME280;56445;43.552;5.034;2022-09-03T19:41:26;101350.13;;;41.05;23.43
69316;BME280;56445;43.552;5.034;2022-09-03T19:47:19;101357.00;;;41.03;23.31
69316;BME280;56445;43.552;5.034;2022-09-03T19:50:23;101371.97;;;41.04;23.78
69316;BME280;56445;43.552;5.034;2022-09-03T19:53:17;101357.41;;;40.88;23.36
69316;BME280;56445;43.552;5.034;2022-09-03T19:56:14;101383.69;;;40.95;23.53
69316;BME280;56445;43.552;5.034;2022-09-03T19:59:06;101362.69;;;40.78;23.53
69316;BME280;56445;43.552;5.034;2022-09-03T20:01:54;101362.28;;;40.76;23.66
69316;BME280;56445;43.552;5.034;2022-09-03T20:05:16;101392.59;;;40.87;23.83
69316;BME280;56445;43.552;5.034;2022-09-03T20:08:03;101383.31;;;40.82;23.57
69316;BME280;56445;43.552;5.034;2022-09-03T20:10:52;101363.88;;;40.67;23.54
69316;BME280;56445;43.552;5.034;2022-09-03T20:13:22;101366.31;;;40.75;23.37
69316;BME280;56445;43.552;5.034;2022-09-03T20:21:32;101363.06;;;40.62;23.51
69316;BME280;56445;43.552;5.034;2022-09-03T20:27:07;101355.75;;;40.58;23.61
69316;BME280;56445;43.552;5.034;2022-09-03T20:32:30;101376.00;;;40.74;23.61
69316;BME280;56445;43.552;5.034;2022-09-03T20:35:37;101359.00;;;40.63;23.92
69316;BME280;56445;43.552;5.034;2022-09-03T20:38:16;101379.22;;;40.69;23.54
69316;BME280;56445;43.552;5.034;2022-09-03T20:40:53;101375.59;;;40.72;23.65
69316;BME280;56445;43.552;5.034;2022-09-03T20:44:10;101379.22;;;40.73;23.75
69316;BME280;56445;43.552;5.034;2022-09-03T20:46:38;101379.63;;;40.71;23.86
69316;BME280;56445;43.552;5.034;2022-09-03T20:49:34;101371.53;;;40.66;23.84
69316;BME280;56445;43.552;5.034;2022-09-03T20:52:20;101367.09;;;40.65;23.54
69316;BME280;56445;43.552;5.034;2022-09-03T21:00:59;101353.34;;;40.56;23.66
69316;BME280;56445;43.552;5.034;2022-09-03T21:03:58;101329.09;;;40.52;23.68
69316;BME280;56445;43.552;5.034;2022-09-03T21:06:54;101348.50;;;40.60;23.70
69316;BME280;56445;43.552;5.034;2022-09-03T21:09:54;101352.13;;;40.57;23.68
69316;BME280;56445;43.552;5.034;2022-09-03T21:12:48;101333.53;;;40.46;23.78
69316;BME280;56445;43.552;5.034;2022-09-03T21:15:34;101359.81;;;40.57;23.72
69316;BME280;56445;43.552;5.034;2022-09-03T21:23:46;101320.13;;;40.24;23.72
69316;BME280;56445;43.552;5.034;2022-09-03T21:26:16;101348.91;;;40.41;23.66
69316;BME280;56445;43.552;5.034;2022-09-03T21:29:03;101346.88;;;40.41;23.51
69316;BME280;56445;43.552;5.034;2022-09-03T21:31:39;101334.69;;;40.30;23.61
69316;BME280;56445;43.552;5.034;2022-09-03T21:34:14;101340.78;;;40.36;23.79
69316;BME280;56445;43.552;5.034;2022-09-03T21:36:44;101337.97;;;40.32;23.67
69316;BME280;56445;43.552;5.034;2022-09-03T21:39:27;101345.25;;;40.33;23.52
69316;BME280;56445;43.552;5.034;2022-09-03T21:42:22;101326.19;;;40.16;23.67
69316;BME280;56445;43.552;5.034;2022-09-03T21:44:57;101351.66;;;40.30;23.61
69316;BME280;56445;43.552;5.034;2022-09-03T21:47:26;101366.63;;;40.34;23.69
69316;BME280;56445;43.552;5.034;2022-09-03T21:50:02;101367.06;;;40.33;23.73
69316;BME280;56445;43.552;5.034;2022-09-03T21:52:50;101372.28;;;40.34;23.65
69316;BME280;56445;43.552;5.034;2022-09-03T21:58:23;101384.34;;;40.24;23.60
69316;BME280;56445;43.552;5.034;2022-09-03T22:01:02;101387.19;;;40.24;23.47
69316;BME280;56445;43.552;5.034;2022-09-03T22:03:33;101384.34;;;40.24;23.38
69316;BME280;56445;43.552;5.034;2022-09-03T22:06:09;101366.56;;;40.09;23.44
69316;BME280;56445;43.552;5.034;2022-09-03T22:08:47;101392.00;;;40.20;23.65
69316;BME280;56445;43.552;5.034;2022-09-03T22:14:36;101379.84;;;40.05;23.62
69316;BME280;56445;43.552;5.034;2022-09-03T22:19:43;101387.50;;;39.97;23.39
69316;BME280;56445;43.552;5.034;2022-09-03T22:22:19;101404.50;;;40.08;23.30
69316;BME280;56445;43.552;5.034;2022-09-03T22:25:04;101395.56;;;39.95;23.55
69316;BME280;56445;43.552;5.034;2022-09-03T22:27:48;101393.53;;;39.92;23.41
69316;BME280;56445;43.552;5.034;2022-09-03T22:30:20;101402.81;;;39.96;23.48
69316;BME280;56445;43.552;5.034;2022-09-03T22:36:01;101423.41;;;39.97;23.76
69316;BME280;56445;43.552;5.034;2022-09-03T22:44:13;101404.75;;;39.78;23.45
69316;BME280;56445;43.552;5.034;2022-09-03T22:52:36;101424.53;;;39.85;23.29
69316;BME280;56445;43.552;5.034;2022-09-03T22:55:19;101421.63;;;39.71;23.73
69316;BME280;56445;43.552;5.034;2022-09-03T22:58:00;101424.84;;;39.69;23.59
69316;BME280;56445;43.552;5.034;2022-09-03T23:00:31;101430.53;;;39.73;23.27
69316;BME280;56445;43.552;5.034;2022-09-03T23:03:07;101439.44;;;39.78;23.19
69316;BME280;56445;43.552;5.034;2022-09-03T23:05:40;101442.66;;;39.77;23.55
69316;BME280;56445;43.552;5.034;2022-09-03T23:08:18;101436.16;;;39.73;23.13
69316;BME280;56445;43.552;5.034;2022-09-03T23:10:57;101440.63;;;39.74;23.52
69316;BME280;56445;43.552;5.034;2022-09-03T23:13:35;101432.47;;;39.61;23.37
69316;BME280;56445;43.552;5.034;2022-09-03T23:16:34;101440.16;;;39.64;23.52
69316;BME280;56445;43.552;5.034;2022-09-03T23:19:16;101432.41;;;39.51;23.73
69316;BME280;56445;43.552;5.034;2022-09-03T23:22:00;101434.44;;;39.50;23.53
69316;BME280;56445;43.552;5.034;2022-09-03T23:24:41;101453.03;;;39.58;23.69
69316;BME280;56445;43.552;5.034;2022-09-03T23:27:16;101447.34;;;39.51;23.53
69316;BME280;56445;43.552;5.034;2022-09-03T23:29:47;101455.81;;;39.51;23.69
69316;BME280;56445;43.552;5.034;2022-09-03T23:32:15;101439.56;;;39.41;23.49
69316;BME280;56445;43.552;5.034;2022-09-03T23:34:43;101446.47;;;39.43;23.78
69316;BME280;56445;43.552;5.034;2022-09-03T23:37:24;101434.69;;;39.34;23.24
69316;BME280;56445;43.552;5.034;2022-09-03T23:40:31;101447.56;;;39.32;23.80
69316;BME280;56445;43.552;5.034;2022-09-03T23:46:25;101448.69;;;39.20;23.42
69316;BME280;56445;43.552;5.034;2022-09-03T23:54:48;101444.69;;;39.24;23.52
69316;BME280;56445;43.552;5.034;2022-09-03T23:57:32;101445.13;;;39.26;23.34
